Time;durP1;ratioP1;P1;durP2;ratioP2;P2;SDS_P1;SDS_P2;PMS_P1;PMS_P2;Temp;Humidity;BMP_temperature;BMP_pressure;BME280_temperature;BME280_humidity;BME280_pressure;Samples;Min_cycle;Max_cycle;Signal;HPM_P1;HPM_P2
2024/02/08 00:00:10;;;;;;;3.83;1.38;;;17.80;62.60;;;;;;6258614;22;20144;-85
2024/02/08 00:02:36;;;;;;;3.60;1.02;;;17.70;62.50;;;;;;6234025;22;20198;-85
2024/02/08 00:05:02;;;;;;;2.35;1.30;;;17.80;62.90;;;;;;6232826;22;20187;-85
2024/02/08 00:07:29;;;;;;;1.45;0.93;;;17.70;62.60;;;;;;6258861;22;20144;-86
2024/02/08 00:09:59;;;;;;;2.45;1.15;;;17.70;62.90;;;;;;6259336;22;20152;-85
2024/02/08 00:12:31;;;;;;;3.10;1.13;;;17.70;62.70;;;;;;6207249;22;20163;-85
2024/02/08 00:15:01;;;;;;;1.67;1.10;;;17.70;62.90;;;;;;6207259;22;20183;-86
2024/02/08 00:17:27;;;;;;;2.03;1.02;;;17.70;62.70;;;;;;6232276;22;20152;-85
2024/02/08 00:19:54;;;;;;;1.15;0.95;;;17.70;62.50;;;;;;6284075;22;20179;-85
2024/02/08 00:22:20;;;;;;;4.00;1.20;;;17.70;62.90;;;;;;6283717;22;20132;-85
2024/02/08 00:24:46;;;;;;;3.50;1.13;;;17.60;62.50;;;;;;6258155;22;20132;-86
2024/02/08 00:27:18;;;;;;;2.72;1.30;;;17.70;62.70;;;;;;6258366;22;20138;-85
2024/02/08 00:29:44;;;;;;;3.05;1.23;;;17.70;62.70;;;;;;6257331;22;20223;-85
2024/02/08 00:32:11;;;;;;;4.30;1.20;;;17.70;62.60;;;;;;6231985;22;20550;-85
2024/02/08 00:34:38;;;;;;;2.05;0.85;;;17.70;62.60;;;;;;6256240;22;20236;-86
2024/02/08 00:37:06;;;;;;;1.23;1.05;;;17.70;62.80;;;;;;6282201;22;20132;-85
2024/02/08 00:39:32;;;;;;;2.60;1.00;;;17.60;62.30;;;;;;6256760;22;20141;-85
2024/02/08 00:41:58;;;;;;;1.27;1.10;;;17.60;62.60;;;;;;6256656;22;20216;-85
2024/02/08 00:44:28;;;;;;;2.13;0.95;;;17.70;62.90;;;;;;6231092;22;20687;-85
2024/02/08 00:46:54;;;;;;;2.35;1.10;;;17.70;62.90;;;;;;6204787;22;20151;-85
2024/02/08 00:49:21;;;;;;;2.75;1.00;;;17.70;62.30;;;;;;6231237;22;20494;-85
2024/02/08 00:51:49;;;;;;;2.47;1.20;;;17.70;62.70;;;;;;6232104;22;20227;-85
2024/02/08 00:54:20;;;;;;;2.28;1.35;;;17.60;62.50;;;;;;6282359;22;20167;-85
2024/02/08 00:56:46;;;;;;;1.85;1.23;;;17.60;62.70;;;;;;6205502;22;20152;-86
2024/02/08 00:59:15;;;;;;;1.70;1.05;;;17.60;62.50;;;;;;6256574;22;20186;-85
2024/02/08 01:01:43;;;;;;;1.88;0.95;;;17.60;62.10;;;;;;6282559;22;20459;-85
2024/02/08 01:04:08;;;;;;;2.70;1.17;;;17.70;62.50;;;;;;6245019;22;20199;-85
2024/02/08 01:06:35;;;;;;;1.50;1.10;;;17.70;62.90;;;;;;6252629;22;20140;-86
2024/02/08 01:09:01;;;;;;;2.38;1.15;;;17.60;62.70;;;;;;6226716;22;20129;-86
2024/02/08 01:11:26;;;;;;;1.67;1.10;;;17.60;62.00;;;;;;6225904;22;20137;-85
2024/02/08 01:13:53;;;;;;;2.50;1.10;;;17.60;62.40;;;;;;6226081;22;20180;-85
2024/02/08 01:16:19;;;;;;;2.53;1.33;;;17.60;62.50;;;;;;6251196;22;20133;-86
2024/02/08 01:18:46;;;;;;;1.52;1.05;;;17.50;62.50;;;;;;6225797;22;20492;-85
2024/02/08 01:21:15;;;;;;;1.88;1.10;;;17.60;62.60;;;;;;6226116;22;20129;-85
2024/02/08 01:23:46;;;;;;;1.30;1.02;;;17.60;63.30;;;;;;6200128;22;20513;-85
2024/02/08 01:26:12;;;;;;;2.03;1.20;;;17.60;62.20;;;;;;6252247;22;20179;-85
2024/02/08 01:28:37;;;;;;;1.45;1.17;;;17.60;62.60;;;;;;6225116;22;20141;-85
2024/02/08 01:31:03;;;;;;;1.40;1.10;;;17.60;62.30;;;;;;6225832;22;20208;-85
2024/02/08 01:33:29;;;;;;;5.22;1.33;;;17.60;62.70;;;;;;6277977;22;20461;-85
2024/02/08 01:35:56;;;;;;;3.72;1.40;;;17.60;62.50;;;;;;6250773;22;20140;-86
2024/02/08 01:38:22;;;;;;;1.52;1.33;;;17.50;62.90;;;;;;6226494;22;20129;-85
2024/02/08 01:40:49;;;;;;;2.72;1.20;;;17.50;62.50;;;;;;6224740;22;20155;-85
2024/02/08 01:43:15;;;;;;;1.23;0.95;;;17.50;62.60;;;;;;6200084;22;20214;-85
2024/02/08 01:45:43;;;;;;;1.88;1.25;;;17.50;62.70;;;;;;6250529;22;20227;-85
2024/02/08 01:48:10;;;;;;;1.42;1.05;;;17.50;62.10;;;;;;6200265;22;20167;-85
2024/02/08 01:50:38;;;;;;;2.35;1.25;;;17.60;62.50;;;;;;6225699;22;20140;-85
2024/02/08 01:53:13;;;;;;;2.50;1.27;;;17.60;63.10;;;;;;6225686;22;20133;-86
2024/02/08 01:55:39;;;;;;;3.40;1.20;;;17.50;62.40;;;;;;6225733;22;20222;-85
2024/02/08 01:58:08;;;;;;;4.20;1.27;;;17.50;62.20;;;;;;6250515;22;20140;-85
2024/02/08 02:00:37;;;;;;;1.73;1.27;;;17.50;62.40;;;;;;6225344;22;20141;-86
2024/02/08 02:03:04;;;;;;;3.80;1.17;;;17.50;62.60;;;;;;6225754;22;20125;-85
2024/02/08 02:05:31;;;;;;;1.92;1.30;;;17.50;62.50;;;;;;6253120;22;20217;-85
2024/02/08 02:07:57;;;;;;;2.72;1.25;;;17.50;62.60;;;;;;6255724;22;20147;-85
2024/02/08 02:10:29;;;;;;;1.70;1.15;;;17.50;62.30;;;;;;6255715;22;20132;-85
2024/02/08 02:12:59;;;;;;;1.10;1.00;;;17.50;62.70;;;;;;6257079;22;20152;-85
2024/02/08 02:15:31;;;;;;;1.60;1.20;;;17.50;62.70;;;;;;6255436;22;20155;-85
2024/02/08 02:18:00;;;;;;;2.50;1.00;;;17.50;62.80;;;;;;6231958;22;20193;-85
2024/02/08 02:20:29;;;;;;;1.33;0.98;;;17.50;62.40;;;;;;6256071;22;20152;-85
2024/02/08 02:22:58;;;;;;;1.45;1.10;;;17.50;62.70;;;;;;6231616;22;20148;-85
2024/02/08 02:25:25;;;;;;;3.50;1.38;;;17.50;62.70;;;;;;6256052;22;20136;-85
2024/02/08 02:28:06;;;;;;;1.50;1.20;;;17.40;62.70;;;;;;6230903;22;20144;-85
2024/02/08 02:30:35;;;;;;;2.60;1.40;;;17.40;62.70;;;;;;6212298;22;20240;-85
2024/02/08 02:33:03;;;;;;;2.90;1.50;;;17.40;62.70;;;;;;6231250;22;20151;-85
2024/02/08 02:35:34;;;;;;;2.22;1.10;;;17.50;62.50;;;;;;6255378;22;20136;-86
2024/02/08 02:38:04;;;;;;;2.00;1.48;;;17.50;62.60;;;;;;6204686;22;20148;-86
2024/02/08 02:40:33;;;;;;;4.40;1.45;;;17.40;62.50;;;;;;6205051;22;20199;-85
2024/02/08 02:42:59;;;;;;;1.45;1.15;;;17.40;62.30;;;;;;6306635;22;20196;-86
2024/02/08 02:45:28;;;;;;;2.25;1.30;;;17.40;62.80;;;;;;6230063;22;20196;-85
2024/02/08 02:48:01;;;;;;;1.50;1.13;;;17.50;62.70;;;;;;6255977;22;20167;-85
2024/02/08 02:50:28;;;;;;;2.58;1.20;;;17.40;62.70;;;;;;6230591;22;20152;-86
2024/02/08 02:52:59;;;;;;;2.97;1.48;;;17.40;62.50;;;;;;6255611;22;20140;-86
2024/02/08 02:55:25;;;;;;;2.60;1.10;;;17.40;62.30;;;;;;6204054;22;20653;-85
2024/02/08 02:57:51;;;;;;;2.28;1.40;;;17.40;62.80;;;;;;6255624;22;20148;-85
2024/02/08 03:00:21;;;;;;;2.10;1.45;;;17.40;62.80;;;;;;6230040;22;20171;-85
2024/02/08 03:02:51;;;;;;;2.05;1.40;;;17.40;62.40;;;;;;6256690;22;20133;-86
2024/02/08 03:05:21;;;;;;;1.95;1.30;;;17.50;62.50;;;;;;6204760;22;20197;-85
2024/02/08 03:07:48;;;;;;;3.60;1.45;;;17.40;62.40;;;;;;6173718;22;20206;-86
2024/02/08 03:10:19;;;;;;;2.58;1.40;;;17.40;62.30;;;;;;6199602;22;20149;-86
2024/02/08 03:12:49;;;;;;;1.98;1.10;;;17.40;62.40;;;;;;6200784;22;20540;-86
2024/02/08 03:15:17;;;;;;;1.77;1.20;;;17.40;62.50;;;;;;6225313;22;20199;-86
2024/02/08 03:17:46;;;;;;;2.20;1.30;;;17.30;62.70;;;;;;6224494;22;20149;-85
2024/02/08 03:20:17;;;;;;;1.65;1.20;;;17.40;62.50;;;;;;6225240;22;20181;-85
2024/02/08 03:22:44;;;;;;;1.60;1.27;;;17.40;62.30;;;;;;6226826;22;20136;-85
2024/02/08 03:25:14;;;;;;;1.65;1.30;;;17.40;62.50;;;;;;6224494;22;20159;-87
2024/02/08 03:27:42;;;;;;;4.07;1.40;;;17.40;62.00;;;;;;6225883;22;20482;-85
2024/02/08 03:30:19;;;;;;;2.33;1.48;;;17.40;62.80;;;;;;6225324;22;20167;-85
2024/02/08 03:32:49;;;;;;;3.03;1.30;;;17.30;62.20;;;;;;6229126;22;20144;-85
2024/02/08 03:35:16;;;;;;;2.67;1.20;;;17.40;62.50;;;;;;6199958;22;20230;-86
2024/02/08 03:37:43;;;;;;;1.63;1.30;;;17.40;62.40;;;;;;6225217;22;20186;-85
2024/02/08 03:40:10;;;;;;;2.08;1.20;;;17.40;62.70;;;;;;6224953;22;20187;-86
2024/02/08 03:42:37;;;;;;;2.15;1.40;;;17.40;62.10;;;;;;6275700;22;20152;-85
2024/02/08 03:45:13;;;;;;;1.63;1.20;;;17.40;62.40;;;;;;6224747;22;20133;-85
2024/02/08 03:47:48;;;;;;;2.30;1.23;;;17.30;62.50;;;;;;6224451;22;20182;-85
2024/02/08 03:50:15;;;;;;;3.50;1.23;;;17.40;62.30;;;;;;6198440;22;20152;-86
2024/02/08 03:52:48;;;;;;;2.58;1.40;;;17.40;62.30;;;;;;6176740;22;20546;-86
2024/02/08 03:55:16;;;;;;;2.70;1.33;;;17.30;62.40;;;;;;6249748;22;20606;-85
2024/02/08 03:57:45;;;;;;;1.90;1.30;;;17.40;62.10;;;;;;6200427;22;20141;-85
2024/02/08 04:00:13;;;;;;;2.58;1.42;;;17.30;62.40;;;;;;6201594;22;20141;-86
2024/02/08 04:02:43;;;;;;;2.08;1.30;;;17.30;62.40;;;;;;6199793;22;20168;-85
2024/02/08 04:05:19;;;;;;;1.67;1.35;;;17.30;62.50;;;;;;6251665;22;20194;-85
2024/02/08 04:53:45;;;;;;;2.05;1.48;;;17.30;61.80;;;;;;6214448;23;20178;-85
2024/02/08 04:56:11;;;;;;;1.42;1.25;;;17.30;62.10;;;;;;6189765;23;20153;-86
2024/02/08 04:58:40;;;;;;;1.80;1.30;;;17.30;62.20;;;;;;6189490;23;20146;-86
2024/02/08 05:01:09;;;;;;;2.35;1.50;;;17.30;62.10;;;;;;6189373;23;20141;-85
2024/02/08 05:03:37;;;;;;;2.67;1.50;;;17.30;62.30;;;;;;6189646;23;20157;-86
2024/02/08 05:38:37;;;;;;;3.53;1.33;;;17.20;62.30;;;;;;6302246;22;20339;-84
2024/02/08 05:41:10;;;;;;;1.52;1.20;;;17.20;62.10;;;;;;6257150;22;20140;-85
2024/02/08 05:43:52;;;;;;;1.60;1.25;;;17.20;62.40;;;;;;6230051;22;20615;-85
2024/02/08 05:46:24;;;;;;;1.50;1.38;;;17.20;62.00;;;;;;6259348;22;20187;-85
2024/02/08 05:48:52;;;;;;;2.00;1.30;;;17.20;62.00;;;;;;6258569;22;20556;-85
2024/02/08 05:51:20;;;;;;;2.88;1.60;;;17.20;62.30;;;;;;6230522;22;20574;-86
2024/02/08 05:53:51;;;;;;;2.63;1.30;;;17.20;62.30;;;;;;6255996;22;20670;-85
2024/02/08 05:56:25;;;;;;;2.25;1.50;;;17.20;62.10;;;;;;6205150;22;20175;-86
2024/02/08 05:58:52;;;;;;;2.03;1.45;;;17.20;62.00;;;;;;6258689;22;20128;-85
2024/02/08 06:01:21;;;;;;;2.45;1.50;;;17.20;61.60;;;;;;6255801;22;20140;-85
2024/02/08 06:03:47;;;;;;;2.13;1.50;;;17.30;62.20;;;;;;6258155;22;20159;-85
2024/02/08 06:06:17;;;;;;;3.63;1.77;;;17.20;62.30;;;;;;6230604;22;20227;-85
2024/02/08 06:08:46;;;;;;;2.63;1.20;;;17.30;61.90;;;;;;6257419;22;20163;-85
2024/02/08 06:11:16;;;;;;;1.50;1.30;;;17.20;62.00;;;;;;6231161;22;20602;-84
2024/02/08 06:13:50;;;;;;;1.80;1.40;;;17.20;62.10;;;;;;6233262;22;20168;-85
2024/02/08 06:16:26;;;;;;;1.88;1.48;;;17.20;61.50;;;;;;6234987;22;20550;-85
2024/02/08 06:18:57;;;;;;;1.90;1.33;;;17.10;61.70;;;;;;6259903;22;20181;-85
2024/02/08 06:21:38;;;;;;;2.05;1.58;;;17.20;61.40;;;;;;6231797;22;20153;-85
2024/02/08 06:24:32;;;;;;;2.45;1.52;;;17.30;60.50;;;;;;6237580;22;20140;-85
2024/02/08 06:27:03;;;;;;;2.42;1.25;;;17.30;60.60;;;;;;6222037;22;20148;-86
2024/02/08 06:35:08;;;;;;;2.65;1.42;;;17.50;60.50;;;;;;6268177;22;20595;-85
2024/02/08 06:37:43;;;;;;;2.40;1.58;;;17.50;60.80;;;;;;6262736;22;20164;-85
2024/02/08 07:38:14;;;;;;;2.35;1.58;;;17.80;59.10;;;;;;6179541;23;20206;-84
2024/02/08 07:40:43;;;;;;;2.88;1.50;;;17.90;57.90;;;;;;6148356;23;20304;-85
2024/02/08 07:43:19;;;;;;;3.42;1.50;;;17.70;59.20;;;;;;6182090;22;20143;-86
2024/02/08 07:45:54;;;;;;;3.47;1.30;;;17.80;59.60;;;;;;6240865;22;20223;-86
2024/02/08 07:51:07;;;;;;;4.20;1.75;;;17.60;59.30;;;;;;6291389;22;20141;-86
2024/02/08 07:53:54;;;;;;;4.15;1.30;;;17.70;59.10;;;;;;6212606;22;20183;-84
2024/02/08 07:59:06;;;;;;;4.38;1.45;;;17.70;58.60;;;;;;6263764;22;20124;-85
2024/02/08 08:01:38;;;;;;;1.83;1.50;;;17.70;58.90;;;;;;6238026;22;20143;-85
2024/02/08 08:04:09;;;;;;;2.15;1.10;;;17.70;58.30;;;;;;6235620;22;20148;-85
2024/02/08 08:06:46;;;;;;;3.92;1.80;;;17.70;59.10;;;;;;6260591;22;20140;-85
2024/02/08 08:09:18;;;;;;;3.58;1.58;;;17.80;59.00;;;;;;6235089;22;20204;-85
2024/02/08 08:11:47;;;;;;;5.20;1.35;;;17.80;58.90;;;;;;6106708;22;20235;-85
2024/02/08 08:19:44;;;;;;;2.88;1.50;;;17.70;58.70;;;;;;6263232;22;20673;-85
2024/02/08 08:22:18;;;;;;;5.47;1.55;;;17.70;59.00;;;;;;6258708;22;20576;-85
2024/02/08 08:25:12;;;;;;;4.97;1.50;;;17.70;59.10;;;;;;6234973;22;20147;-85
2024/02/08 08:27:47;;;;;;;2.20;1.45;;;17.70;59.40;;;;;;6288940;22;20474;-84
2024/02/08 08:30:27;;;;;;;2.30;1.48;;;17.70;59.10;;;;;;6262201;22;20181;-84
2024/02/08 08:33:08;;;;;;;4.10;1.35;;;17.70;58.40;;;;;;6216412;22;20589;-85
2024/02/08 08:35:46;;;;;;;1.63;1.20;;;17.70;59.10;;;;;;6259480;22;20167;-85
2024/02/08 08:38:28;;;;;;;2.58;1.40;;;17.70;59.40;;;;;;6209574;22;20159;-84
2024/02/08 08:41:06;;;;;;;4.07;1.48;;;17.60;59.40;;;;;;6265614;22;20140;-86
2024/02/08 08:43:42;;;;;;;4.07;1.23;;;17.60;59.70;;;;;;6213335;22;20609;-85
2024/02/08 08:46:17;;;;;;;1.77;1.40;;;17.60;59.80;;;;;;6210240;22;20151;-85
2024/02/08 08:48:55;;;;;;;1.98;1.30;;;17.60;59.50;;;;;;6209484;22;20219;-86
2024/02/08 08:51:30;;;;;;;4.20;1.40;;;17.60;59.40;;;;;;6207271;22;20235;-87
2024/02/08 08:54:00;;;;;;;1.70;1.33;;;17.70;59.60;;;;;;6233407;22;20202;-83
2024/02/08 08:56:29;;;;;;;3.25;1.48;;;17.70;59.40;;;;;;6310723;22;20121;-85
2024/02/08 08:59:04;;;;;;;2.47;1.30;;;17.70;59.80;;;;;;6236268;22;20147;-87
2024/02/08 09:01:40;;;;;;;3.65;1.42;;;17.60;60.10;;;;;;6249113;23;20162;-86
2024/02/08 09:04:09;;;;;;;2.58;1.73;;;17.70;59.50;;;;;;6174341;23;20202;-84
2024/02/08 09:06:38;;;;;;;6.45;1.77;;;17.60;58.70;;;;;;6202610;23;20215;-87
2024/02/08 09:09:27;;;;;;;1.65;1.40;;;17.80;58.30;;;;;;6200945;23;20142;-86
2024/02/08 09:12:07;;;;;;;2.95;1.48;;;17.80;58.60;;;;;;6210670;23;20164;-87
2024/02/08 09:14:39;;;;;;;2.05;1.48;;;17.80;59.30;;;;;;6205538;23;20360;-86
2024/02/08 09:17:25;;;;;;;4.95;1.40;;;17.60;58.50;;;;;;6207045;23;20199;-87
2024/02/08 09:19:59;;;;;;;3.50;1.38;;;17.70;58.90;;;;;;6206755;23;20249;-86
2024/02/08 09:22:31;;;;;;;3.28;1.48;;;17.70;58.30;;;;;;6182587;23;20228;-87
2024/02/08 09:25:09;;;;;;;2.83;1.25;;;17.70;59.20;;;;;;6228060;23;20133;-85
2024/02/08 09:27:35;;;;;;;2.25;1.70;;;17.80;59.40;;;;;;6191071;23;20211;-86
2024/02/08 09:30:09;;;;;;;2.67;1.48;;;17.80;58.00;;;;;;6164153;23;20531;-85
2024/02/08 09:32:44;;;;;;;2.33;1.20;;;17.80;58.50;;;;;;6219342;23;20198;-85
2024/02/08 09:35:13;;;;;;;3.15;1.63;;;17.80;58.70;;;;;;6171097;23;20281;-86
2024/02/08 09:37:47;;;;;;;2.92;1.48;;;17.80;57.70;;;;;;6221502;23;20141;-84
2024/02/08 09:43:16;;;;;;;1.73;1.40;;;17.90;58.10;;;;;;6199434;23;20154;-86
2024/02/08 09:46:01;;;;;;;3.13;1.33;;;18.00;58.00;;;;;;6203307;23;20157;-85
2024/02/08 09:48:36;;;;;;;2.08;1.50;;;18.00;57.80;;;;;;6224079;23;20153;-85
2024/02/08 09:51:11;;;;;;;5.07;1.88;;;18.00;58.00;;;;;;6197666;23;20166;-85
2024/02/08 09:53:40;;;;;;;2.58;1.80;;;18.10;58.40;;;;;;6198558;23;20188;-84
2024/02/08 09:58:55;;;;;;;1.60;1.35;;;17.90;58.70;;;;;;6264481;22;20151;-86
2024/02/08 10:01:35;;;;;;;5.55;1.70;;;17.90;58.30;;;;;;6283949;22;20185;-86
2024/02/08 10:04:04;;;;;;;4.97;1.42;;;18.00;58.20;;;;;;6236745;22;20144;-87
2024/02/08 10:06:41;;;;;;;5.18;1.60;;;17.90;59.30;;;;;;6283169;22;20292;-84
2024/02/08 10:09:34;;;;;;;3.25;1.30;;;17.90;58.40;;;;;;6260130;22;20257;-86
2024/02/08 10:12:06;;;;;;;3.10;1.50;;;18.00;57.90;;;;;;6287490;22;20154;-86
2024/02/08 10:14:35;;;;;;;2.42;1.52;;;18.10;57.80;;;;;;6257475;22;20262;-85
2024/02/08 10:17:18;;;;;;;2.63;1.55;;;18.00;57.80;;;;;;6256500;22;20132;-86
2024/02/08 10:28:05;;;;;;;2.72;1.48;;;18.00;58.10;;;;;;6261190;22;20466;-86
2024/02/08 10:30:34;;;;;;;4.35;1.70;;;18.10;57.40;;;;;;6232365;22;20144;-85
2024/02/08 10:33:04;;;;;;;4.10;1.40;;;18.00;57.80;;;;;;6256477;22;20136;-87
2024/02/08 10:35:39;;;;;;;4.53;1.80;;;18.00;58.70;;;;;;6232044;22;20183;-85
2024/02/08 10:38:14;;;;;;;3.35;1.50;;;18.00;57.70;;;;;;6234717;22;20143;-85
2024/02/08 10:40:40;;;;;;;5.47;1.98;;;18.00;58.80;;;;;;6234565;22;20175;-86
2024/02/08 10:45:53;;;;;;;2.45;1.50;;;18.00;58.30;;;;;;6285527;22;20139;-86
2024/02/08 10:48:21;;;;;;;4.10;1.65;;;18.00;57.80;;;;;;6255539;22;20132;-85
2024/02/08 10:50:49;;;;;;;5.13;1.55;;;18.10;57.80;;;;;;6229277;22;20140;-85
2024/02/08 10:53:18;;;;;;;2.28;1.38;;;18.00;57.60;;;;;;6233030;22;20144;-88
2024/02/08 10:55:52;;;;;;;3.70;1.80;;;18.10;57.60;;;;;;6256309;22;20475;-85
2024/02/08 10:58:21;;;;;;;2.03;1.35;;;18.00;57.10;;;;;;6280564;22;20137;-85
2024/02/08 11:00:49;;;;;;;4.05;1.52;;;18.00;58.40;;;;;;6231705;22;20147;-86
2024/02/08 11:03:33;;;;;;;3.17;1.30;;;18.10;58.00;;;;;;6257481;22;20136;-85
2024/02/08 11:06:01;;;;;;;2.55;1.38;;;18.00;56.50;;;;;;6263611;22;20120;-85
2024/02/08 11:08:36;;;;;;;1.90;1.33;;;18.00;57.60;;;;;;6229957;22;20136;-87
2024/02/08 11:11:10;;;;;;;2.97;1.50;;;18.00;57.80;;;;;;6235653;22;20140;-86
2024/02/08 11:13:39;;;;;;;2.00;1.58;;;18.00;58.40;;;;;;6232013;22;20132;-85
2024/02/08 11:16:20;;;;;;;2.95;1.50;;;18.00;58.50;;;;;;6256798;22;20136;-87
2024/02/08 12:12:36;;;;;;;2.35;1.40;;;18.10;57.80;;;;;;6330435;22;20198;-85
2024/02/08 12:15:11;;;;;;;2.22;1.35;;;18.10;58.70;;;;;;6284222;22;20229;-86
2024/02/08 12:17:44;;;;;;;2.53;1.40;;;18.00;58.40;;;;;;6258529;22;20136;-85
2024/02/08 12:20:23;;;;;;;2.42;1.27;;;18.00;58.50;;;;;;6234918;22;20140;-86
2024/02/08 12:22:53;;;;;;;2.40;1.10;;;18.10;57.80;;;;;;6284753;22;20146;-85
2024/02/08 12:25:19;;;;;;;3.42;1.30;;;18.10;57.70;;;;;;6285076;22;20162;-85
2024/02/08 12:27:48;;;;;;;2.92;1.50;;;18.10;57.10;;;;;;6261268;22;20136;-85
2024/02/08 12:30:21;;;;;;;1.83;1.30;;;18.20;57.60;;;;;;6261772;22;20147;-86
2024/02/08 12:33:07;;;;;;;2.17;1.48;;;18.10;57.10;;;;;;6261270;22;20470;-86
2024/02/08 12:35:40;;;;;;;2.22;1.25;;;18.10;57.00;;;;;;6245554;22;20186;-86
2024/02/08 12:38:08;;;;;;;2.92;1.40;;;18.20;57.00;;;;;;6262906;22;20127;-87
2024/02/08 12:40:37;;;;;;;1.88;1.40;;;18.20;56.80;;;;;;6261446;22;20165;-86
2024/02/08 12:43:11;;;;;;;1.77;1.13;;;18.20;57.80;;;;;;6260950;22;20182;-87
2024/02/08 12:45:38;;;;;;;1.48;1.13;;;18.10;57.40;;;;;;6287531;22;20626;-87
2024/02/08 12:48:10;;;;;;;1.58;1.10;;;18.20;57.00;;;;;;6236851;22;20136;-86
2024/02/08 12:50:37;;;;;;;2.20;1.38;;;18.20;57.40;;;;;;6311965;22;20128;-83
2024/02/08 12:53:05;;;;;;;2.88;1.25;;;18.20;57.40;;;;;;6260252;22;20137;-83
2024/02/08 12:55:31;;;;;;;2.35;0.95;;;18.20;56.70;;;;;;6263401;22;20163;-84
2024/02/08 12:58:01;;;;;;;1.90;1.10;;;18.10;56.80;;;;;;6264625;22;20172;-84
2024/02/08 13:00:37;;;;;;;2.55;1.30;;;18.20;57.40;;;;;;6239525;22;20136;-85
2024/02/08 13:03:06;;;;;;;3.13;1.30;;;18.20;56.70;;;;;;6295329;22;20238;-85
2024/02/08 13:05:38;;;;;;;1.75;1.30;;;18.20;57.80;;;;;;6265576;22;20182;-85
2024/02/08 13:08:08;;;;;;;4.32;1.42;;;18.10;57.90;;;;;;6238522;22;20171;-84
2024/02/08 13:11:01;;;;;;;;;;;;;;;;;;;;;
2024/02/08 13:13:48;;;;;;;3.53;1.45;;;18.10;57.20;;;;;;6212875;22;20184;-86
2024/02/08 13:16:20;;;;;;;3.22;1.38;;;18.10;58.60;;;;;;6079554;23;20156;-86
2024/02/08 13:18:54;;;;;;;3.30;1.20;;;18.10;59.00;;;;;;6078431;23;20195;-85
2024/02/08 13:21:24;;;;;;;3.08;1.27;;;18.10;59.20;;;;;;6102152;23;20173;-85
2024/02/08 13:23:59;;;;;;;2.90;1.20;;;18.10;58.70;;;;;;6078619;23;20204;-85
2024/02/08 13:26:25;;;;;;;3.22;1.17;;;18.10;58.60;;;;;;6054693;23;20156;-86
2024/02/08 13:28:51;;;;;;;3.90;1.23;;;18.20;59.20;;;;;;6103879;23;20262;-85
2024/02/08 13:31:19;;;;;;;2.22;1.23;;;18.20;58.40;;;;;;6078881;23;20153;-84
2024/02/08 13:33:47;;;;;;;1.67;1.10;;;18.30;57.30;;;;;;6047017;23;20249;-86
2024/02/08 13:36:18;;;;;;;2.25;1.20;;;18.20;58.10;;;;;;6027006;23;20178;-84
2024/02/08 13:38:44;;;;;;;2.38;1.30;;;18.20;57.00;;;;;;6043183;23;20164;-84
2024/02/08 13:41:10;;;;;;;5.38;1.38;;;18.20;57.50;;;;;;6044052;23;20175;-84
2024/02/08 13:49:52;;;;;;;2.88;1.20;;;18.30;57.80;;;;;;6298920;22;20203;-84
2024/02/08 13:52:30;;;;;;;5.10;1.20;;;18.30;57.00;;;;;;6242619;22;20136;-84
2024/02/08 13:54:58;;;;;;;1.48;1.10;;;18.20;57.90;;;;;;6210476;22;20189;-84
2024/02/08 13:57:30;;;;;;;1.48;1.27;;;18.20;58.70;;;;;;6285130;22;20125;-84
2024/02/08 14:00:03;;;;;;;4.15;1.80;;;18.20;56.90;;;;;;6259939;22;20227;-86
2024/02/08 14:02:31;;;;;;;2.17;1.10;;;18.20;56.70;;;;;;6261249;22;20147;-85
2024/02/08 14:05:16;;;;;;;4.22;1.15;;;18.30;57.50;;;;;;6224641;23;20242;-85
2024/02/08 14:07:52;;;;;;;3.13;1.20;;;18.30;57.40;;;;;;6224929;23;20141;-86
2024/02/08 14:10:36;;;;;;;2.70;1.20;;;18.30;58.20;;;;;;6175227;23;20148;-87
2024/02/08 14:13:11;;;;;;;1.98;1.52;;;18.30;57.70;;;;;;6175045;23;20149;-85
2024/02/08 14:15:45;;;;;;;3.90;1.30;;;18.30;58.40;;;;;;6177478;23;20252;-86
2024/02/08 14:18:22;;;;;;;3.30;1.10;;;18.40;57.20;;;;;;6198666;23;20152;-87
2024/02/08 14:20:52;;;;;;;5.65;0.90;;;18.40;58.20;;;;;;6176527;23;20154;-87
2024/02/08 14:23:30;;;;;;;1.38;0.98;;;18.40;58.20;;;;;;6198009;23;20502;-86
2024/02/08 14:28:46;;;;;;;2.33;1.15;;;18.30;58.00;;;;;;6203879;23;20149;-86
2024/02/08 14:31:14;;;;;;;1.60;1.08;;;18.30;58.40;;;;;;6169392;23;20149;-86
2024/02/08 14:33:41;;;;;;;3.17;1.10;;;18.40;57.70;;;;;;6195011;23;20625;-86
2024/02/08 14:36:14;;;;;;;3.22;1.20;;;18.40;58.20;;;;;;6210220;22;20151;-88
2024/02/08 14:38:40;;;;;;;2.15;1.10;;;18.40;58.70;;;;;;6259000;22;20132;-86
2024/02/08 14:44:05;;;;;;;4.43;1.40;;;18.30;58.40;;;;;;6240960;22;20225;-86
2024/02/08 14:46:52;;;;;;;9.00;1.58;;;18.30;59.30;;;;;;6235924;22;20139;-86
2024/02/08 14:49:23;;;;;;;6.28;1.40;;;18.30;58.80;;;;;;6309941;22;20638;-84
2024/02/08 14:51:58;;;;;;;7.78;1.30;;;18.30;57.90;;;;;;6284262;22;20211;-83
2024/02/08 14:54:27;;;;;;;2.42;1.25;;;18.40;58.90;;;;;;6238870;22;20205;-86
2024/02/08 14:59:41;;;;;;;4.43;1.15;;;18.40;58.30;;;;;;6217958;23;20204;-85
2024/02/08 15:02:18;;;;;;;2.55;1.10;;;18.40;57.60;;;;;;6192636;23;20153;-85
2024/02/08 15:04:45;;;;;;;3.47;1.45;;;18.40;58.10;;;;;;6216701;23;20158;-85
2024/02/08 15:07:44;;;;;;;4.00;1.15;;;18.40;57.70;;;;;;6216194;23;20157;-84
2024/02/08 15:09:58;;;;;;;4.20;1.20;;;18.40;57.70;;;;;;6214694;23;20519;-84
2024/02/08 15:12:30;;;;;;;2.03;1.15;;;18.40;57.90;;;;;;6191768;23;20145;-85
2024/02/08 15:15:29;;;;;;;5.80;1.30;;;18.40;57.60;;;;;;6213740;23;20172;-85
2024/02/08 15:18:10;;;;;;;5.03;1.15;;;18.40;57.50;;;;;;6184213;23;20154;-84
2024/02/08 15:20:55;;;;;;;;;;;;;;;;;;;;;
2024/02/08 15:26:49;;;;;;;5.43;1.25;;;18.40;57.50;;;;;;6140594;23;20186;-84
2024/02/08 15:35:35;;;;;;;5.22;1.60;;;18.30;58.50;;;;;;5980696;24;20198;-84
2024/02/08 15:40:47;;;;;;;3.10;1.15;;;18.30;59.10;;;;;;5938089;24;20234;-85
2024/02/08 15:43:17;;;;;;;2.28;1.20;;;18.30;59.10;;;;;;5958247;24;20243;-85
2024/02/08 15:45:44;;;;;;;2.70;1.00;;;18.30;57.80;;;;;;5980230;24;20230;-85
2024/02/08 15:48:14;;;;;;;3.63;0.95;;;18.30;56.90;;;;;;5982643;23;20227;-84
2024/02/08 15:50:44;;;;;;;4.47;1.20;;;18.40;57.90;;;;;;6033557;23;20163;-85
2024/02/08 15:53:19;;;;;;;6.60;1.17;;;18.30;57.70;;;;;;6036420;23;20613;-85
2024/02/08 15:55:50;;;;;;;5.47;1.30;;;18.40;57.70;;;;;;6036918;23;20189;-84
2024/02/08 15:58:17;;;;;;;1.95;0.80;;;18.40;58.60;;;;;;6049699;23;20157;-88
2024/02/08 16:03:26;;;;;;;4.90;1.38;;;18.30;58.70;;;;;;6128872;23;20179;-85
2024/02/08 16:05:56;;;;;;;4.32;1.30;;;18.40;58.90;;;;;;6129972;23;20150;-85
2024/02/08 16:08:32;;;;;;;2.97;1.15;;;18.40;58.20;;;;;;6146388;23;20527;-85
2024/02/08 16:11:08;;;;;;;1.63;1.05;;;18.40;59.50;;;;;;6283201;22;20148;-85
2024/02/08 16:14:03;;;;;;;1.65;1.10;;;18.30;59.20;;;;;;6211329;23;20624;-86
2024/02/08 16:16:31;;;;;;;3.15;0.95;;;18.30;60.00;;;;;;6121496;23;20147;-86
2024/02/08 16:19:42;;;;;;;2.42;1.13;;;18.30;58.90;;;;;;6168086;23;20143;-86
2024/02/08 16:23:02;;;;;;;3.95;1.42;;;18.30;58.30;;;;;;6159411;23;20485;-85
2024/02/08 16:26:12;;;;;;;6.13;1.20;;;18.30;59.40;;;;;;6071302;23;20172;-86
2024/02/08 16:28:49;;;;;;;3.13;1.20;;;18.40;58.80;;;;;;6049215;23;20256;-85
2024/02/08 16:31:24;;;;;;;3.85;1.38;;;18.40;58.60;;;;;;6002824;23;20163;-86
2024/02/08 16:33:54;;;;;;;3.83;1.17;;;18.40;60.00;;;;;;6050851;23;20180;-86
2024/02/08 16:36:34;;;;;;;5.55;1.30;;;18.40;59.70;;;;;;6024554;23;20237;-86
2024/02/08 16:41:59;;;;;;;3.47;1.27;;;18.50;60.00;;;;;;6053013;23;20141;-86
2024/02/08 16:44:30;;;;;;;2.83;0.95;;;18.40;59.70;;;;;;6072582;23;20159;-86
2024/02/08 16:47:10;;;;;;;6.28;1.35;;;18.40;60.20;;;;;;6164229;23;20135;-86
2024/02/08 16:49:50;;;;;;;4.72;1.60;;;18.40;60.30;;;;;;6138041;23;20285;-86
2024/02/08 16:52:21;;;;;;;6.70;1.55;;;18.40;60.20;;;;;;6091877;23;20210;-86
2024/02/08 16:55:12;;;;;;;5.10;1.38;;;18.40;58.50;;;;;;6113162;23;20171;-86
2024/02/08 16:57:39;;;;;;;4.35;1.25;;;18.40;59.10;;;;;;6243779;23;20157;-85
2024/02/08 17:00:48;;;;;;;4.22;1.20;;;18.40;59.30;;;;;;6261095;22;20478;-85
2024/02/08 17:03:04;;;;;;;3.85;1.10;;;18.40;59.40;;;;;;6320163;22;20590;-86
2024/02/08 17:05:48;;;;;;;2.72;1.27;;;18.50;58.60;;;;;;6262818;22;20471;-85
2024/02/08 17:08:20;;;;;;;7.00;1.40;;;18.50;58.40;;;;;;6271821;22;20139;-86
2024/02/08 17:10:55;;;;;;;4.20;1.10;;;18.50;58.30;;;;;;6318704;22;20493;-86
2024/02/08 17:13:27;;;;;;;4.55;1.40;;;18.50;59.00;;;;;;6293230;22;20147;-86
2024/02/08 17:16:24;;;;;;;3.03;1.15;;;18.50;58.40;;;;;;6294682;22;20162;-85
2024/02/08 17:19:10;;;;;;;6.97;1.30;;;18.60;58.10;;;;;;6302316;22;20151;-86
2024/02/08 17:24:08;;;;;;;4.60;1.27;;;18.60;58.70;;;;;;6298567;22;20131;-86
2024/02/08 17:26:58;;;;;;;5.75;1.38;;;18.60;59.00;;;;;;6218720;22;20150;-84
2024/02/08 17:29:31;;;;;;;5.80;1.20;;;18.60;59.30;;;;;;6245174;22;20190;-85
2024/02/08 17:32:02;;;;;;;4.63;1.30;;;18.60;59.40;;;;;;6302397;22;20198;-85